Time;durP1;ratioP1;P1;durP2;ratioP2;P2;SDS_P1;SDS_P2;PMS_P1;PMS_P2;Temp;Humidity;BMP_temperature;BMP_pressure;BME280_temperature;BME280_humidity;BME280_pressure;Samples;Min_cycle;Max_cycle;Signal;HPM_P1;HPM_P2
2021/09/18 00:00:26;;;;;;;;;;;15.40;40.20;;;;;;4344291;33;19966;-46
2021/09/18 00:02:52;;;;;;;;;;;15.50;40.10;;;;;;4344039;32;19975;-46
2021/09/18 00:05:18;;;;;;;;;;;15.50;40.00;;;;;;4344089;32;19974;-45
2021/09/18 00:07:44;;;;;;;;;;;15.60;40.00;;;;;;4344217;33;20374;-46
2021/09/18 00:10:11;;;;;;;;;;;15.60;40.00;;;;;;4344269;33;20455;-43
2021/09/18 00:12:37;;;;;;;;;;;15.60;40.10;;;;;;4344463;32;19967;-47
2021/09/18 00:15:04;;;;;;;;;;;15.60;40.10;;;;;;4343838;33;20340;-44
2021/09/18 00:17:30;;;;;;;;;;;15.60;40.00;;;;;;4344069;33;20057;-41
2021/09/18 00:19:56;;;;;;;;;;;15.60;40.00;;;;;;4343991;33;19967;-48
2021/09/18 00:22:22;;;;;;;;;;;15.60;40.00;;;;;;4330112;33;19965;-46
2021/09/18 00:24:48;;;;;;;;;;;15.70;40.10;;;;;;4344060;33;20033;-46
2021/09/18 00:27:15;;;;;;;;;;;15.70;40.10;;;;;;4343824;33;19971;-46
2021/09/18 00:29:41;;;;;;;;;;;15.70;40.10;;;;;;4343826;33;19967;-47
2021/09/18 00:32:07;;;;;;;;;;;15.80;40.10;;;;;;4344010;33;19985;-47
2021/09/18 00:34:33;;;;;;;;;;;15.80;40.10;;;;;;4343634;33;20364;-46
2021/09/18 00:36:59;;;;;;;;;;;15.80;40.20;;;;;;4344059;33;20101;-47
2021/09/18 00:39:25;;;;;;;;;;;15.80;40.20;;;;;;4343678;33;19982;-43
2021/09/18 00:41:52;;;;;;;;;;;15.80;40.30;;;;;;4343980;33;20050;-48
2021/09/18 00:44:19;;;;;;;;;;;15.80;40.30;;;;;;4343545;33;20045;-46
2021/09/18 00:46:45;;;;;;;;;;;15.80;40.30;;;;;;4343905;33;19985;-47
2021/09/18 00:49:12;;;;;;;;;;;15.80;40.20;;;;;;4353469;32;20456;-42
2021/09/18 00:51:38;;;;;;;;;;;15.80;40.30;;;;;;4358455;32;19962;-46
2021/09/18 00:54:05;;;;;;;;;;;15.80;40.30;;;;;;4358378;32;20039;-47
2021/09/18 00:56:32;;;;;;;;;;;15.70;40.30;;;;;;4358471;32;20382;-47
2021/09/18 00:58:58;;;;;;;;;;;15.70;40.40;;;;;;4358673;32;19977;-48
2021/09/18 01:01:24;;;;;;;;;;;15.80;40.50;;;;;;4358726;32;19962;-47
2021/09/18 01:03:50;;;;;;;;;;;15.80;40.40;;;;;;4358155;32;19970;-45
2021/09/18 01:06:17;;;;;;;;;;;15.80;40.40;;;;;;4344725;32;20079;-48
2021/09/18 01:08:43;;;;;;;;;;;15.80;40.40;;;;;;4332000;32;19973;-43
2021/09/18 01:11:10;;;;;;;;;;;15.90;40.50;;;;;;4358900;32;19973;-45
2021/09/18 01:13:36;;;;;;;;;;;15.90;40.40;;;;;;4358255;32;19988;-47
2021/09/18 01:16:02;;;;;;;;;;;15.90;40.50;;;;;;4357967;32;19970;-46
2021/09/18 01:18:28;;;;;;;;;;;15.90;40.50;;;;;;4358271;32;19970;-50
2021/09/18 01:20:54;;;;;;;;;;;15.80;40.60;;;;;;4358725;32;20045;-44
2021/09/18 01:23:23;;;;;;;;;;;15.70;41.10;;;;;;4358550;32;19978;-50
2021/09/18 01:25:50;;;;;;;;;;;15.70;41.30;;;;;;4358364;32;20006;-48
2021/09/18 01:28:16;;;;;;;;;;;15.60;41.50;;;;;;4358201;32;20512;-47
2021/09/18 01:30:42;;;;;;;;;;;15.60;41.60;;;;;;4358600;32;19966;-50
2021/09/18 01:33:08;;;;;;;;;;;15.50;41.60;;;;;;4358518;32;20482;-48
2021/09/18 01:35:35;;;;;;;;;;;15.50;42.00;;;;;;4357781;32;20437;-46
2021/09/18 01:38:01;;;;;;;;;;;15.50;42.20;;;;;;4358145;32;20004;-45
2021/09/18 01:40:29;;;;;;;;;;;15.40;42.40;;;;;;4358151;32;20005;-46
2021/09/18 01:42:55;;;;;;;;;;;15.30;42.40;;;;;;4358117;32;19985;-45
2021/09/18 01:45:22;;;;;;;;;;;15.30;42.70;;;;;;4358031;32;20504;-50
2021/09/18 01:47:53;;;;;;;;;;;15.20;42.70;;;;;;4356551;32;19977;-48
2021/09/18 01:50:20;;;;;;;;;;;15.20;43.10;;;;;;4343449;33;19989;-47
2021/09/18 01:52:47;;;;;;;;;;;15.20;43.20;;;;;;4343141;33;20415;-48
2021/09/18 01:55:15;;;;;;;;;;;15.20;43.10;;;;;;4343180;33;19970;-47
2021/09/18 01:57:45;;;;;;;;;;;15.20;43.20;;;;;;4343410;33;20384;-48
2021/09/18 02:00:15;;;;;;;;;;;15.20;43.20;;;;;;4343229;33;20488;-48
2021/09/18 02:02:42;;;;;;;;;;;15.10;43.30;;;;;;4345101;32;19974;-48
2021/09/18 02:05:08;;;;;;;;;;;15.10;43.60;;;;;;4345832;33;19985;-44
2021/09/18 02:07:35;;;;;;;;;;;15.10;43.60;;;;;;4345992;33;20043;-48
2021/09/18 02:10:01;;;;;;;;;;;15.10;44.30;;;;;;4346004;33;19966;-47
2021/09/18 02:12:27;;;;;;;;;;;15.00;43.80;;;;;;4345328;33;20544;-47
2021/09/18 02:14:53;;;;;;;;;;;15.00;44.00;;;;;;4345569;33;20525;-48
2021/09/18 02:17:19;;;;;;;;;;;15.00;44.10;;;;;;4345357;33;20000;-49
2021/09/18 02:19:45;;;;;;;;;;;14.90;44.30;;;;;;4345905;33;20431;-47
2021/09/18 02:22:12;;;;;;;;;;;14.90;44.50;;;;;;4345576;33;20054;-45
2021/09/18 02:24:38;;;;;;;;;;;14.80;44.70;;;;;;4345557;33;19988;-46
2021/09/18 02:27:04;;;;;;;;;;;14.70;44.70;;;;;;4345500;33;20562;-48
2021/09/18 02:29:30;;;;;;;;;;;14.60;45.10;;;;;;4345416;33;20072;-46
2021/09/18 02:31:56;;;;;;;;;;;14.60;45.20;;;;;;4327840;33;19979;-47
2021/09/18 02:34:22;;;;;;;;;;;14.60;45.40;;;;;;4327907;33;20382;-47
2021/09/18 02:36:51;;;;;;;;;;;14.60;45.60;;;;;;4328127;33;19975;-50
2021/09/18 02:39:17;;;;;;;;;;;14.50;46.00;;;;;;4328334;33;20529;-47
2021/09/18 02:41:43;;;;;;;;;;;14.50;45.80;;;;;;4328272;33;20044;-47
2021/09/18 02:44:09;;;;;;;;;;;14.50;45.80;;;;;;4328082;33;19974;-46
2021/09/18 02:46:35;;;;;;;;;;;14.60;45.60;;;;;;4328110;33;20089;-48
2021/09/18 02:49:01;;;;;;;;;;;14.60;45.60;;;;;;4337007;33;19979;-48
2021/09/18 02:51:27;;;;;;;;;;;14.70;45.60;;;;;;4342469;33;19971;-47
2021/09/18 02:53:53;;;;;;;;;;;14.80;45.40;;;;;;4342671;33;19966;-48
2021/09/18 02:56:20;;;;;;;;;;;14.80;45.50;;;;;;4342862;33;19958;-46
2021/09/18 02:58:46;;;;;;;;;;;14.70;45.30;;;;;;4342954;33;19991;-51
2021/09/18 03:01:12;;;;;;;;;;;14.80;45.20;;;;;;4342976;33;20482;-48
2021/09/18 03:03:38;;;;;;;;;;;14.70;45.40;;;;;;4342273;33;20540;-49
2021/09/18 03:06:04;;;;;;;;;;;14.70;45.30;;;;;;4342420;33;19985;-51
2021/09/18 03:08:30;;;;;;;;;;;14.60;45.60;;;;;;4344845;32;20457;-48
2021/09/18 03:10:57;;;;;;;;;;;14.50;45.70;;;;;;4359821;32;19980;-46
2021/09/18 03:13:23;;;;;;;;;;;14.40;45.90;;;;;;4345109;32;20000;-49
2021/09/18 03:15:49;;;;;;;;;;;14.50;46.10;;;;;;4359841;32;19978;-46
2021/09/18 03:18:15;;;;;;;;;;;14.50;46.10;;;;;;4346528;32;19976;-50
2021/09/18 03:20:41;;;;;;;;;;;14.60;46.10;;;;;;4359412;32;19966;-50
2021/09/18 03:23:08;;;;;;;;;;;14.60;46.10;;;;;;4359689;32;19986;-46
2021/09/18 03:25:35;;;;;;;;;;;14.70;46.20;;;;;;4359324;32;19970;-47
2021/09/18 03:28:01;;;;;;;;;;;14.80;46.00;;;;;;4359203;32;19958;-47
2021/09/18 03:30:27;;;;;;;;;;;15.00;45.80;;;;;;4359569;32;19981;-47
2021/09/18 03:32:53;;;;;;;;;;;15.20;45.50;;;;;;4359397;32;20006;-48
2021/09/18 03:35:20;;;;;;;;;;;15.40;45.10;;;;;;4359804;32;20436;-49
2021/09/18 03:37:46;;;;;;;;;;;15.60;44.80;;;;;;4359341;32;20025;-49
2021/09/18 03:40:12;;;;;;;;;;;15.90;44.40;;;;;;4359704;32;20089;-51
2021/09/18 03:42:38;;;;;;;;;;;16.10;43.80;;;;;;4359586;32;20464;-49
2021/09/18 03:45:05;;;;;;;;;;;16.20;43.10;;;;;;4359642;32;19981;-50
2021/09/18 03:47:31;;;;;;;;;;;16.30;43.10;;;;;;4359166;32;20053;-49
2021/09/18 03:49:58;;;;;;;;;;;16.40;42.80;;;;;;4330737;33;19972;-48
2021/09/18 03:52:26;;;;;;;;;;;16.40;42.50;;;;;;4344595;33;20364;-47
2021/09/18 03:54:53;;;;;;;;;;;16.40;42.50;;;;;;4344294;33;20056;-41
2021/09/18 03:57:19;;;;;;;;;;;16.30;42.60;;;;;;4344332;33;20442;-48
2021/09/18 03:59:45;;;;;;;;;;;16.10;42.90;;;;;;4344137;32;19970;-48
2021/09/18 04:02:12;;;;;;;;;;;15.90;43.40;;;;;;4344219;33;20416;-47
2021/09/18 04:04:38;;;;;;;;;;;15.80;43.80;;;;;;4343964;33;19995;-46
2021/09/18 04:07:04;;;;;;;;;;;15.70;43.80;;;;;;4330231;33;19962;-48
2021/09/18 04:09:30;;;;;;;;;;;15.70;44.00;;;;;;4343770;33;20485;-47
2021/09/18 04:11:56;;;;;;;;;;;15.70;43.80;;;;;;4330180;33;19971;-46
2021/09/18 04:14:23;;;;;;;;;;;15.80;43.80;;;;;;4344238;33;19963;-46
2021/09/18 04:16:49;;;;;;;;;;;15.90;43.90;;;;;;4343898;33;19974;-45
2021/09/18 04:19:15;;;;;;;;;;;16.00;43.50;;;;;;4344206;33;19967;-45
2021/09/18 04:21:41;;;;;;;;;;;16.10;42.90;;;;;;4344150;33;19966;-48
2021/09/18 04:24:07;;;;;;;;;;;16.20;42.70;;;;;;4343924;33;19982;-46
2021/09/18 04:26:34;;;;;;;;;;;16.40;42.10;;;;;;4343649;33;19999;-47
2021/09/18 04:29:00;;;;;;;;;;;16.60;41.20;;;;;;4343683;33;19983;-47
2021/09/18 04:31:26;;;;;;;;;;;16.80;40.50;;;;;;4330259;33;20434;-47
2021/09/18 04:33:52;;;;;;;;;;;16.90;39.80;;;;;;4344210;33;19963;-48
2021/09/18 04:36:19;;;;;;;;;;;17.10;39.20;;;;;;4344045;33;20493;-45
2021/09/18 04:38:45;;;;;;;;;;;17.10;39.20;;;;;;4343186;33;20001;-48
2021/09/18 04:41:11;;;;;;;;;;;17.20;38.60;;;;;;4343702;33;20396;-44
2021/09/18 04:43:37;;;;;;;;;;;17.20;38.80;;;;;;4343588;33;19982;-49
2021/09/18 04:46:03;;;;;;;;;;;17.30;38.20;;;;;;4343654;33;19967;-46
2021/09/18 04:48:30;;;;;;;;;;;17.40;38.30;;;;;;4343585;33;19966;-47
2021/09/18 04:50:56;;;;;;;;;;;17.40;37.30;;;;;;4341877;33;20491;-46
2021/09/18 04:53:22;;;;;;;;;;;17.40;37.10;;;;;;4343678;32;19986;-44
2021/09/18 04:55:48;;;;;;;;;;;17.40;37.10;;;;;;4343583;33;19962;-49
2021/09/18 04:58:15;;;;;;;;;;;17.40;36.90;;;;;;4343374;32;19962;-49
2021/09/18 05:00:41;;;;;;;;;;;17.40;37.00;;;;;;4343605;32;19959;-48
2021/09/18 05:03:08;;;;;;;;;;;17.50;37.40;;;;;;4343497;32;19997;-47
2021/09/18 05:05:34;;;;;;;;;;;17.70;37.30;;;;;;4343431;32;19962;-47
2021/09/18 05:08:00;;;;;;;;;;;17.90;37.10;;;;;;4342944;32;20462;-51
2021/09/18 05:10:26;;;;;;;;;;;18.00;37.00;;;;;;4343715;32;20386;-43
2021/09/18 05:12:52;;;;;;;;;;;18.00;36.60;;;;;;4343481;32;20399;-42
2021/09/18 05:15:19;;;;;;;;;;;17.90;35.50;;;;;;4346106;32;19966;-47
2021/09/18 05:17:45;;;;;;;;;;;17.90;35.50;;;;;;4357893;32;19970;-48
2021/09/18 05:20:12;;;;;;;;;;;17.90;36.00;;;;;;4358279;32;19982;-49
2021/09/18 05:22:38;;;;;;;;;;;17.80;35.30;;;;;;4358127;32;20067;-45
2021/09/18 05:25:05;;;;;;;;;;;17.80;35.70;;;;;;4357828;32;20042;-41
2021/09/18 05:27:31;;;;;;;;;;;17.80;35.10;;;;;;4358451;32;19955;-41
2021/09/18 05:29:57;;;;;;;;;;;17.90;35.30;;;;;;4358266;32;20009;-42
2021/09/18 05:32:24;;;;;;;;;;;18.00;35.10;;;;;;4357915;32;20433;-41
2021/09/18 05:34:50;;;;;;;;;;;18.10;35.00;;;;;;4357855;32;19966;-42
2021/09/18 05:37:16;;;;;;;;;;;18.10;34.70;;;;;;4359287;32;20402;-40
2021/09/18 05:39:42;;;;;;;;;;;18.20;33.90;;;;;;4361062;32;20411;-41
2021/09/18 05:42:08;;;;;;;;;;;18.30;34.40;;;;;;4360538;32;19962;-41
2021/09/18 05:44:35;;;;;;;;;;;18.40;34.20;;;;;;4360950;32;20001;-41
2021/09/18 05:47:01;;;;;;;;;;;18.50;34.10;;;;;;4347113;32;19966;-41
2021/09/18 05:49:27;;;;;;;;;;;18.60;33.10;;;;;;4349152;32;19966;-40
2021/09/18 05:51:53;;;;;;;;;;;18.70;33.20;;;;;;4345749;32;20473;-42
2021/09/18 05:54:20;;;;;;;;;;;18.90;33.20;;;;;;4346093;33;19987;-42
2021/09/18 05:56:47;;;;;;;;;;;19.20;34.40;;;;;;4345732;33;19989;-43
2021/09/18 05:59:13;;;;;;;;;;;19.30;34.80;;;;;;4345864;33;20352;-42
2021/09/18 06:01:39;;;;;;;;;;;19.50;34.80;;;;;;4345533;33;19959;-42
2021/09/18 06:04:05;;;;;;;;;;;19.70;34.70;;;;;;4345911;32;20047;-42
2021/09/18 06:06:31;;;;;;;;;;;19.80;34.40;;;;;;4346138;33;19971;-42
2021/09/18 06:08:58;;;;;;;;;;;19.70;34.20;;;;;;4299005;33;19987;-42
2021/09/18 06:11:24;;;;;;;;;;;19.80;34.40;;;;;;4299626;33;19999;-43
2021/09/18 06:13:50;;;;;;;;;;;19.80;34.40;;;;;;4299205;33;20022;-43
2021/09/18 06:16:16;;;;;;;;;;;20.00;34.20;;;;;;4299455;33;20098;-44
2021/09/18 06:18:43;;;;;;;;;;;20.00;34.00;;;;;;4287597;33;19983;-43
2021/09/18 06:21:09;;;;;;;;;;;20.10;33.80;;;;;;4299432;33;19968;-44
2021/09/18 06:23:37;;;;;;;;;;;20.10;33.80;;;;;;4299073;33;20003;-42
2021/09/18 06:26:04;;;;;;;;;;;20.10;33.90;;;;;;4299235;33;19960;-42
2021/09/18 06:28:30;;;;;;;;;;;20.00;33.80;;;;;;4299364;33;20456;-43
2021/09/18 06:30:57;;;;;;;;;;;20.00;34.10;;;;;;4299591;33;19979;-44
2021/09/18 06:33:23;;;;;;;;;;;19.90;34.20;;;;;;4298908;33;19976;-43
2021/09/18 06:35:49;;;;;;;;;;;19.90;34.20;;;;;;4298917;33;20376;-43
2021/09/18 06:38:21;;;;;;;;;;;19.90;34.60;;;;;;4298532;33;20003;-44
2021/09/18 06:40:54;;;;;;;;;;;19.90;33.40;;;;;;4338019;33;19985;-42
2021/09/18 06:43:21;;;;;;;;;;;19.70;33.20;;;;;;4345673;33;19970;-44
2021/09/18 06:45:48;;;;;;;;;;;19.50;33.20;;;;;;4345427;33;19999;-42
2021/09/18 06:48:14;;;;;;;;;;;19.30;33.50;;;;;;4344847;33;19970;-43
2021/09/18 06:50:41;;;;;;;;;;;19.10;32.80;;;;;;4331124;33;19975;-42
2021/09/18 06:53:07;;;;;;;;;;;18.80;33.10;;;;;;4331494;33;19971;-43
2021/09/18 06:55:34;;;;;;;;;;;18.50;33.80;;;;;;4345261;33;19966;-41
2021/09/18 06:58:00;;;;;;;;;;;18.20;34.10;;;;;;4344990;33;20002;-41
2021/09/18 07:00:27;;;;;;;;;;;17.90;34.20;;;;;;4344726;33;20390;-42
2021/09/18 07:02:53;;;;;;;;;;;17.60;34.30;;;;;;4345061;33;19998;-41
2021/09/18 07:05:20;;;;;;;;;;;17.40;35.10;;;;;;4344984;33;20125;-40
2021/09/18 07:07:46;;;;;;;;;;;17.30;35.20;;;;;;4344921;33;19985;-41
2021/09/18 07:10:12;;;;;;;;;;;17.30;35.50;;;;;;4345056;33;19966;-41
2021/09/18 07:12:39;;;;;;;;;;;17.60;35.30;;;;;;4344617;33;19979;-40
2021/09/18 07:15:06;;;;;;;;;;;17.70;34.60;;;;;;4326788;33;20058;-40
2021/09/18 07:17:32;;;;;;;;;;;17.80;34.40;;;;;;4342608;33;20513;-41
2021/09/18 07:19:58;;;;;;;;;;;18.00;34.60;;;;;;4342137;33;20402;-40
2021/09/18 07:22:25;;;;;;;;;;;18.20;34.40;;;;;;4342205;33;20066;-40
2021/09/18 07:24:51;;;;;;;;;;;18.50;34.20;;;;;;4342385;33;19974;-40
2021/09/18 07:27:18;;;;;;;;;;;18.70;33.70;;;;;;4342120;33;20045;-40
2021/09/18 07:29:45;;;;;;;;;;;18.80;33.50;;;;;;4312074;33;20004;-41
2021/09/18 07:32:11;;;;;;;;;;;18.90;33.30;;;;;;4312890;33;19982;-41
2021/09/18 07:34:38;;;;;;;;;;;18.70;33.10;;;;;;4312757;33;19960;-40
2021/09/18 07:37:04;;;;;;;;;;;18.60;33.50;;;;;;4312651;33;19995;-41
2021/09/18 07:39:31;;;;;;;;;;;18.40;33.50;;;;;;4313128;33;19971;-41
2021/09/18 07:41:57;;;;;;;;;;;18.30;33.70;;;;;;4312226;33;20039;-41
2021/09/18 07:44:24;;;;;;;;;;;18.40;34.00;;;;;;4312571;33;19991;-40
2021/09/18 07:46:50;;;;;;;;;;;18.50;33.80;;;;;;4324252;33;19994;-41
2021/09/18 07:49:19;;;;;;;;;;;18.60;33.90;;;;;;4316053;33;20080;-40
2021/09/18 07:51:45;;;;;;;;;;;18.90;33.80;;;;;;4312344;33;19971;-40
2021/09/18 07:54:11;;;;;;;;;;;19.20;33.10;;;;;;4312539;33;19964;-41
2021/09/18 07:56:37;;;;;;;;;;;19.20;32.30;;;;;;4312175;33;19990;-40
2021/09/18 07:59:03;;;;;;;;;;;19.30;32.40;;;;;;4312125;33;19987;-41
2021/09/18 08:01:30;;;;;;;;;;;19.40;31.80;;;;;;4338182;33;20035;-39
2021/09/18 08:04:03;;;;;;;;;;;19.40;31.70;;;;;;4343733;33;20010;-40
2021/09/18 08:06:30;;;;;;;;;;;19.40;31.90;;;;;;4343795;33;19951;-39
2021/09/18 08:08:56;;;;;;;;;;;19.60;32.10;;;;;;4343389;33;19998;-42
2021/09/18 08:11:23;;;;;;;;;;;19.80;31.60;;;;;;4344029;33;19967;-40
2021/09/18 08:13:53;;;;;;;;;;;19.70;31.60;;;;;;4344294;33;19974;-39
2021/09/18 08:16:19;;;;;;;;;;;19.80;31.60;;;;;;4343712;33;19970;-38
2021/09/18 08:18:45;;;;;;;;;;;19.90;31.70;;;;;;4344049;33;20470;-40
2021/09/18 08:21:12;;;;;;;;;;;20.00;30.40;;;;;;4343904;33;19970;-39
2021/09/18 08:23:38;;;;;;;;;;;19.90;30.00;;;;;;4343763;33;19974;-39
2021/09/18 08:26:05;;;;;;;;;;;20.00;30.40;;;;;;4343892;33;19978;-39
2021/09/18 08:28:31;;;;;;;;;;;19.90;30.50;;;;;;4343821;33;19978;-41
2021/09/18 08:30:57;;;;;;;;;;;20.00;30.50;;;;;;4311226;33;20029;-40
2021/09/18 08:33:23;;;;;;;;;;;20.00;30.70;;;;;;4299774;33;20052;-40
2021/09/18 08:35:49;;;;;;;;;;;20.20;30.70;;;;;;4311559;33;19966;-39
2021/09/18 08:38:17;;;;;;;;;;;20.30;30.70;;;;;;4312051;33;20448;-39
2021/09/18 08:40:44;;;;;;;;;;;20.40;30.00;;;;;;4311637;33;19983;-40
2021/09/18 08:43:10;;;;;;;;;;;20.30;29.70;;;;;;4311763;33;19975;-40
2021/09/18 08:45:36;;;;;;;;;;;20.40;30.00;;;;;;4312169;33;19976;-39
2021/09/18 08:48:04;;;;;;;;;;;20.60;29.90;;;;;;4314698;33;19978;-39
2021/09/18 08:50:30;;;;;;;;;;;20.60;29.70;;;;;;4326467;33;19970;-39
2021/09/18 08:52:57;;;;;;;;;;;20.50;29.70;;;;;;4326419;33;20013;-40
2021/09/18 08:55:23;;;;;;;;;;;20.50;30.00;;;;;;4326407;33;20054;-41
2021/09/18 08:57:50;;;;;;;;;;;20.50;29.90;;;;;;4326311;33;19960;-40
2021/09/18 09:00:31;;;;;;;;;;;20.60;29.80;;;;;;4326445;33;19967;-40
2021/09/18 09:02:58;;;;;;;;;;;20.70;29.40;;;;;;4326339;33;20006;-40
2021/09/18 09:05:42;;;;;;;;;;;20.70;29.30;;;;;;4326213;33;19987;-40
2021/09/18 09:08:21;;;;;;;;;;;20.80;29.50;;;;;;4338760;32;19966;-41
2021/09/18 09:10:48;;;;;;;;;;;20.90;29.70;;;;;;4358244;32;20058;-40
2021/09/18 09:13:16;;;;;;;;;;;20.90;29.70;;;;;;4361009;32;19962;-40
2021/09/18 09:15:45;;;;;;;;;;;20.60;29.40;;;;;;4360808;32;19982;-40
2021/09/18 09:18:28;;;;;;;;;;;20.40;29.40;;;;;;4361505;32;20037;-41
2021/09/18 09:21:12;;;;;;;;;;;20.20;29.50;;;;;;4361431;32;20013;-41
2021/09/18 09:23:39;;;;;;;;;;;20.00;29.90;;;;;;4361204;32;19959;-40
2021/09/18 09:26:05;;;;;;;;;;;20.10;30.00;;;;;;4361409;32;20026;-41
2021/09/18 09:28:34;;;;;;;;;;;20.20;30.00;;;;;;4360840;32;20021;-41
2021/09/18 09:31:31;;;;;;;;;;;20.20;29.60;;;;;;4360644;32;19974;-41
2021/09/18 09:34:05;;;;;;;;;;;20.00;29.70;;;;;;4361263;32;19994;-41
2021/09/18 09:36:36;;;;;;;;;;;19.70;30.00;;;;;;4361049;32;19982;-41
2021/09/18 09:39:04;;;;;;;;;;;19.50;30.40;;;;;;4346805;32;19977;-41
2021/09/18 09:41:41;;;;;;;;;;;19.40;30.40;;;;;;4360875;32;19993;-41
2021/09/18 09:44:16;;;;;;;;;;;19.20;31.00;;;;;;4360705;32;19963;-41
2021/09/18 09:46:42;;;;;;;;;;;19.20;31.70;;;;;;4360952;32;19962;-41
2021/09/18 09:49:10;;;;;;;;;;;19.20;32.10;;;;;;4351340;32;19987;-41
2021/09/18 09:51:40;;;;;;;;;;;19.20;32.10;;;;;;4346101;33;19967;-41
2021/09/18 09:54:18;;;;;;;;;;;19.30;32.30;;;;;;4346105;33;19994;-40
2021/09/18 09:56:44;;;;;;;;;;;19.20;32.50;;;;;;4345853;33;20001;-39
2021/09/18 09:59:10;;;;;;;;;;;19.30;32.40;;;;;;4332715;33;19966;-41
2021/09/18 10:01:37;;;;;;;;;;;19.40;32.20;;;;;;4332008;33;19982;-40
2021/09/18 10:04:03;;;;;;;;;;;19.40;32.10;;;;;;4331955;33;20496;-40
2021/09/18 10:06:29;;;;;;;;;;;19.40;32.20;;;;;;4346104;33;19971;-40
2021/09/18 10:08:56;;;;;;;;;;;19.50;32.40;;;;;;4345389;33;20026;-39
2021/09/18 10:11:29;;;;;;;;;;;19.40;32.30;;;;;;4345656;33;20051;-40
2021/09/18 10:13:57;;;;;;;;;;;19.30;32.60;;;;;;4345724;33;19969;-39
2021/09/18 10:16:25;;;;;;;;;;;19.20;32.40;;;;;;4345333;33;19967;-40
2021/09/18 10:18:53;;;;;;;;;;;19.10;32.50;;;;;;4345527;33;20037;-40
2021/09/18 10:24:04;;;;;;;;;;;18.60;33.60;;;;;;4323003;33;20010;-40
2021/09/18 10:26:31;;;;;;;;;;;18.70;33.80;;;;;;4345729;33;20041;-39
2021/09/18 10:29:00;;;;;;;;;;;18.70;33.40;;;;;;4345445;33;20421;-40
2021/09/18 10:31:27;;;;;;;;;;;18.60;33.40;;;;;;4345255;33;20046;-40
2021/09/18 10:33:53;;;;;;;;;;;18.30;33.30;;;;;;4345058;33;19971;-40
2021/09/18 10:36:31;;;;;;;;;;;18.20;33.50;;;;;;4345163;33;19966;-40
2021/09/18 10:39:10;;;;;;;;;;;18.10;34.10;;;;;;4345327;33;19991;-41
2021/09/18 10:41:43;;;;;;;;;;;17.90;34.20;;;;;;4345157;33;20021;-40
2021/09/18 10:44:09;;;;;;;;;;;18.00;34.20;;;;;;4345032;33;20468;-39
2021/09/18 10:46:47;;;;;;;;;;;18.00;34.10;;;;;;4345146;33;19999;-40
2021/09/18 10:49:31;;;;;;;;;;;18.10;34.20;;;;;;4341676;32;19997;-40
2021/09/18 10:52:16;;;;;;;;;;;18.10;33.90;;;;;;4360046;32;19982;-40
2021/09/18 10:55:01;;;;;;;;;;;18.30;33.80;;;;;;4360010;32;20090;-41
2021/09/18 10:57:31;;;;;;;;;;;18.10;33.50;;;;;;4360114;32;20035;-41
2021/09/18 10:59:57;;;;;;;;;;;17.90;33.90;;;;;;4359864;32;20012;-42
2021/09/18 11:02:32;;;;;;;;;;;17.80;34.00;;;;;;4345883;32;19967;-39
2021/09/18 11:05:23;;;;;;;;;;;17.90;33.90;;;;;;4359762;32;20006;-40
2021/09/18 11:07:53;;;;;;;;;;;18.00;33.80;;;;;;4351524;32;20016;-39
2021/09/18 11:10:22;;;;;;;;;;;18.20;33.50;;;;;;4359453;32;20389;-39
2021/09/18 11:13:09;;;;;;;;;;;18.40;33.20;;;;;;4359598;32;20051;-39
2021/09/18 11:15:43;;;;;;;;;;;18.60;33.10;;;;;;4349269;32;19993;-40
2021/09/18 11:18:13;;;;;;;;;;;18.80;32.80;;;;;;4360084;32;19962;-39
2021/09/18 11:20:40;;;;;;;;;;;19.00;32.60;;;;;;4359783;32;20478;-40
2021/09/18 11:23:06;;;;;;;;;;;19.00;32.30;;;;;;4359630;32;19962;-39
2021/09/18 11:25:43;;;;;;;;;;;18.90;32.30;;;;;;4359678;32;19958;-40
2021/09/18 11:28:10;;;;;;;;;;;18.80;32.50;;;;;;4346149;32;20110;-40
2021/09/18 11:30:47;;;;;;;;;;;18.70;32.70;;;;;;4345355;32;20000;-39
2021/09/18 11:33:18;;;;;;;;;;;18.70;32.70;;;;;;4345681;32;20022;-40
2021/09/18 11:35:52;;;;;;;;;;;18.70;32.80;;;;;;4358945;32;19977;-40
2021/09/18 11:38:24;;;;;;;;;;;18.60;32.60;;;;;;4359607;32;19973;-39
2021/09/18 11:40:50;;;;;;;;;;;18.50;32.90;;;;;;4359296;32;20031;-39
2021/09/18 11:43:25;;;;;;;;;;;18.50;32.80;;;;;;4345616;32;19977;-39
2021/09/18 11:45:52;;;;;;;;;;;18.50;32.90;;;;;;4359436;32;20047;-39
2021/09/18 11:48:21;;;;;;;;;;;18.60;33.10;;;;;;4354173;32;20407;-40
2021/09/18 11:50:47;;;;;;;;;;;18.70;33.10;;;;;;4344355;33;19994;-40
2021/09/18 11:53:14;;;;;;;;;;;18.90;32.90;;;;;;4344167;33;20392;-39
2021/09/18 11:55:46;;;;;;;;;;;19.00;33.30;;;;;;4343694;33;20006;-39
2021/09/18 11:58:24;;;;;;;;;;;19.10;32.30;;;;;;4344252;33;20461;-40
2021/09/18 12:00:51;;;;;;;;;;;19.30;32.20;;;;;;4344437;33;19971;-40
2021/09/18 12:03:25;;;;;;;;;;;19.60;32.40;;;;;;4344094;33;19970;-40
2021/09/18 12:05:59;;;;;;;;;;;19.70;32.40;;;;;;4344309;33;19970;-38
2021/09/18 12:08:27;;;;;;;;;;;19.90;32.70;;;;;;4344329;33;19974;-40
2021/09/18 12:11:09;;;;;;;;;;;19.80;32.60;;;;;;4344367;33;19973;-40
2021/09/18 12:13:40;;;;;;;;;;;19.80;32.60;;;;;;4331646;33;20056;-39
2021/09/18 12:16:07;;;;;;;;;;;19.80;32.70;;;;;;4330581;33;20412;-40
2021/09/18 12:18:37;;;;;;;;;;;19.80;32.70;;;;;;4343978;33;19983;-40
2021/09/18 12:21:05;;;;;;;;;;;19.70;32.60;;;;;;4344124;33;19971;-39
2021/09/18 12:23:32;;;;;;;;;;;19.70;32.80;;;;;;4330170;33;19970;-39
2021/09/18 12:26:00;;;;;;;;;;;19.60;32.90;;;;;;4343722;33;20394;-39
2021/09/18 12:28:27;;;;;;;;;;;19.50;33.10;;;;;;4343964;33;19994;-38
2021/09/18 12:30:53;;;;;;;;;;;19.50;33.10;;;;;;4343658;33;20412;-38
2021/09/18 12:33:30;;;;;;;;;;;19.60;33.00;;;;;;4343936;33;19990;-39
2021/09/18 12:36:09;;;;;;;;;;;19.60;33.00;;;;;;4343563;33;20001;-40
2021/09/18 12:38:36;;;;;;;;;;;19.70;33.10;;;;;;4343914;33;19982;-40
2021/09/18 12:41:13;;;;;;;;;;;19.80;33.10;;;;;;4343514;33;19983;-40
2021/09/18 12:44:01;;;;;;;;;;;19.80;32.80;;;;;;4329878;33;19975;-41
2021/09/18 12:46:28;;;;;;;;;;;19.70;33.00;;;;;;4331121;33;19954;-40
2021/09/18 12:49:04;;;;;;;;;;;19.70;33.70;;;;;;4351600;32;20022;-39
2021/09/18 12:51:31;;;;;;;;;;;19.60;33.90;;;;;;4358314;32;19966;-39
2021/09/18 12:53:58;;;;;;;;;;;19.50;35.30;;;;;;4358260;32;20358;-39
2021/09/18 12:56:27;;;;;;;;;;;19.40;36.40;;;;;;4358562;32;19994;-38
2021/09/18 12:58:58;;;;;;;;;;;19.20;36.50;;;;;;4358255;32;19978;-39
2021/09/18 13:01:46;;;;;;;;;;;19.00;36.90;;;;;;4325921;33;20001;-39
2021/09/18 13:04:16;;;;;;;;;;;18.80;37.30;;;;;;4326043;33;20029;-40
2021/09/18 13:07:01;;;;;;;;;;;18.60;37.00;;;;;;4326310;33;19971;-38
2021/09/18 13:09:28;;;;;;;;;;;18.50;37.30;;;;;;4326075;33;19994;-39
2021/09/18 13:11:58;;;;;;;;;;;18.40;37.50;;;;;;4326070;33;19970;-40
2021/09/18 13:14:32;;;;;;;;;;;18.40;38.60;;;;;;4326251;33;20014;-38
2021/09/18 13:17:09;;;;;;;;;;;18.40;37.60;;;;;;4325683;33;19993;-39
2021/09/18 13:19:52;;;;;;;;;;;18.30;37.10;;;;;;4326269;33;19967;-39
2021/09/18 13:22:22;;;;;;;;;;;18.30;36.90;;;;;;4326043;33;20001;-40
2021/09/18 13:24:49;;;;;;;;;;;18.30;36.90;;;;;;4325883;33;19995;-40
2021/09/18 13:27:16;;;;;;;;;;;18.20;36.40;;;;;;4326169;33;19962;-40
2021/09/18 13:29:42;;;;;;;;;;;18.20;36.10;;;;;;4326078;33;19978;-40
2021/09/18 13:32:09;;;;;;;;;;;18.30;36.10;;;;;;4338588;32;20149;-40
2021/09/18 13:34:35;;;;;;;;;;;18.20;35.80;;;;;;4357934;32;19958;-39
2021/09/18 13:37:01;;;;;;;;;;;18.30;35.70;;;;;;4357627;32;20067;-40
2021/09/18 13:39:28;;;;;;;;;;;18.10;33.60;;;;;;4358035;32;19974;-40
2021/09/18 13:41:55;;;;;;;;;;;17.90;33.20;;;;;;4357632;32;20056;-40
2021/09/18 13:44:21;;;;;;;;;;;17.70;33.30;;;;;;4358154;32;20366;-40
2021/09/18 13:46:47;;;;;;;;;;;17.40;32.80;;;;;;4357583;32;19958;-39
2021/09/18 13:49:13;;;;;;;;;;;17.30;33.20;;;;;;4347349;32;20080;-40
2021/09/18 13:51:39;;;;;;;;;;;17.10;33.70;;;;;;4343141;33;19974;-39
2021/09/18 13:54:06;;;;;;;;;;;17.00;34.20;;;;;;4342806;33;20525;-40
2021/09/18 13:56:32;;;;;;;;;;;16.90;34.80;;;;;;4329425;33;20033;-39
2021/09/18 13:58:58;;;;;;;;;;;16.80;35.10;;;;;;4344675;32;20345;-39
2021/09/18 14:01:24;;;;;;;;;;;16.70;34.60;;;;;;4346114;33;19994;-40
2021/09/18 14:03:50;;;;;;;;;;;16.60;34.90;;;;;;4345823;33;19979;-40
2021/09/18 14:06:17;;;;;;;;;;;16.50;35.10;;;;;;4345944;33;20374;-39
2021/09/18 14:08:44;;;;;;;;;;;16.40;34.80;;;;;;4331868;33;19983;-41
2021/09/18 14:11:10;;;;;;;;;;;16.30;34.70;;;;;;4345800;33;20065;-39
2021/09/18 14:13:37;;;;;;;;;;;16.10;35.00;;;;;;4345622;33;19978;-40
2021/09/18 14:16:04;;;;;;;;;;;16.00;35.40;;;;;;4345186;33;19963;-39
2021/09/18 14:18:30;;;;;;;;;;;15.90;35.50;;;;;;4345647;33;20432;-40
2021/09/18 14:20:56;;;;;;;;;;;15.70;35.70;;;;;;4345296;33;20009;-40
2021/09/18 14:23:23;;;;;;;;;;;15.60;35.20;;;;;;4345175;33;19971;-40